Pagrindinis puslapis
METAR-TAF:

METAR-TAF

Oro uostai :

Manheimas, Vokietija

platuma: 49-28-21N, ilguma: 008-30-56E, Aukštis: 100 m

Dabartinis oras

Ataskaita buvo paskelbta 20 minutes, ne 10:50 UTC
Vėjas 7 kt iš Šiaurės Rytų, svyruoja nuo Šiaurės ir Rytų
Temperatūra 19°C
Drėgmė 37%
Slėgis 1020 hPa
Matomumas 10 km arba daugiau
nėra debesų žemiau 1500 m ir nėra kamuolinių lietaus debesų

METAR: EDFM 311050Z 04007KT 350V100 CAVOK 19/04 Q1020

Laikas: 13:10 (11:10 UTC)


TAF: trūkstamas

Orai ataskaitas ir orų prognozės (METAR, TAF).

turimą stotys yra geltonos ir raudonos taškus žemėlapyje.

Perkelti pele per norėdami pamatyti stoties vardą.

Tada spustelėkite, norėdami matyti oro stebėjimo ir prognozės.

Norėdami pakeisti žemėlapį: spustelėkite ant žalios mygtukų su juodo kryžiaus žemyn,; žalią mygtuką su brūkšneliu, jei norite nutolinti; arba žalių rodyklių gretimoms žemėlapius.


METAR-TAF: